Sunday, October 21, 2018, 12:41 PM EDT
Back to Local

KOXB, Ocean City Municipal Airport

Location: Berlin, MD, United States Lat: 38.317
Local Time: 12:41 PM EDT (16:41 GMT) Lon: -75.117
Time Zone: US/Eastern Elev: 13 ft

Show me the last for .
Show Decoded

2018-10-21 11:53 METAR KOXB 211553Z AUTO 34020G28KT 10SM FEW043 12/01 A3003 RMK AO2 PK WND
                 31030/1535 SLP169 T01220011 =
2018-10-21 10:53 METAR KOXB 211453Z AUTO 34020G32KT 10SM FEW030 SCT036 11/03 A3001 RMK AO2 PK WND
                 33032/1445 SLP162 T01110028 51039 =
2018-10-21 10:07 METAR KOXB 211407Z AUTO 34015G27KT 10SM BKN030 BKN034 10/04 A2999 RMK AO2 PK WND
                 32028/1354 T01000039 =
2018-10-21 09:53 METAR KOXB 211353Z AUTO 33019G30KT 10SM BKN028 BKN034 10/04 A2999 RMK AO2 PK WND
                 35030/1352 SLP153 T01000039 =
2018-10-21 08:53 METAR KOXB 211253Z AUTO 32013G22KT 10SM CLR 11/04 A2994 RMK AO2 SLP139 T01060039
                 =
2018-10-21 07:53 METAR KOXB 211153Z AUTO 31010G20KT 10SM CLR 09/03 A2989 RMK AO2 SLP123 70002
                 T00940028 10111 20089 53044 =
2018-10-21 06:53 METAR KOXB 211053Z AUTO 30011G22KT 10SM CLR 09/03 A2985 RMK AO2 SLP107 T00940028
                 =
2018-10-21 05:53 METAR KOXB 210953Z AUTO 32010KT 10SM FEW037 FEW050 SCT110 11/03 A2981 RMK AO2
                 SLP093 T01060033 =
2018-10-21 04:53 METAR KOXB 210853Z AUTO 30009KT 10SM FEW041 BKN120 11/06 A2977 RMK AO2 SLP079
                 T01060061 53018 =
2018-10-21 03:53 METAR KOXB 210753Z AUTO 27007KT 10SM OVC100 11/06 A2973 RMK AO2 SLP066 T01060061
                 =
2018-10-21 02:53 METAR KOXB 210653Z AUTO 32009G16KT 10SM SCT070 BKN110 11/06 A2972 RMK AO2 SLP064
                 T01110056 =
2018-10-21 01:53 METAR KOXB 210553Z AUTO 32010KT 10SM BKN120 11/06 A2971 RMK AO2 SLP061 T01110056
                 10150 20111 51010 =
2018-10-21 00:53 METAR KOXB 210453Z AUTO 32013G24KT 10SM FEW041 FEW060 SCT085 12/07 A2971 RMK AO2
                 PK WND 32027/0441 SLP061 T01170067 401720117 =
2018-10-20 23:53 METAR KOXB 210353Z AUTO 30004KT 10SM FEW016 FEW090 14/13 A2968 RMK AO2 SLP051
                 T01390128 =
2018-10-20 22:53 METAR KOXB 210253Z AUTO 23006KT 10SM OVC070 14/14 A2968 RMK AO2 SLP050 T01440139
                 56007 =
2018-10-20 21:53 METAR KOXB 210153Z AUTO 24005KT 10SM FEW047 SCT065 14/14 A2969 RMK AO2 SLP053
                 T01390139 =
2018-10-20 20:53 METAR KOXB 210053Z AUTO 25004KT 10SM FEW070 14/13 A2969 RMK AO2 SLP054 T01390133
                 =
2018-10-20 19:53 METAR KOXB 202353Z AUTO 23003KT 10SM OVC060 14/13 A2970 RMK AO2 SLP057 T01440133
                 10167 20144 53000 =
2018-10-20 18:53 METAR KOXB 202253Z AUTO 00000KT 10SM OVC060 15/13 A2968 RMK AO2 SLP051 T01500133
                 =
2018-10-20 17:53 METAR KOXB 202153Z AUTO 27004KT 10SM BKN055 16/13 A2968 RMK AO2 SLP050 T01610133
                 =
2018-10-20 16:53 METAR KOXB 202053Z AUTO 28005KT 10SM BKN060 17/14 A2970 RMK AO2 SLP057 T01670139
                 58015 =
2018-10-20 15:53 METAR KOXB 201953Z AUTO 27005KT 10SM OVC060 17/14 A2971 RMK AO2 SLP062 T01670139
                 =
2018-10-20 14:53 METAR KOXB 201853Z AUTO 25006KT 10SM FEW015 BKN060 17/14 A2973 RMK AO2 SLP068
                 T01670144 =
2018-10-20 13:53 METAR KOXB 201753Z AUTO 27004KT 10SM BKN048 17/14 A2975 RMK AO2 SLP072 60002
                 T01670144 10172 20150 58024 =
2018-10-20 13:28 METAR KOXB 201728Z AUTO 27007KT 10SM FEW027 SCT035 OVC046 17/14 A2978 RMK AO2
                 T01670144 =
2018-10-20 12:53 METAR KOXB 201653Z AUTO 28010KT 10SM FEW017 OVC024 17/15 A2978 RMK AO2 SLP083
                 T01670150 =

Support USWX by starting your Amazon purchase here.